sensor_id;sensor_type;location;lat;lon;timestamp;pressure;altitude;pressure_sealevel;temperature;humidity
46642;BME280;32370;41.864;-88.124;2023-03-11T00:01:03;99244.81;;;0.91;88.88
46642;BME280;32370;41.864;-88.124;2023-03-11T00:03:31;99246.50;;;0.81;88.59
46642;BME280;32370;41.864;-88.124;2023-03-11T00:06:01;99238.89;;;0.58;90.68
46642;BME280;32370;41.864;-88.124;2023-03-11T00:08:29;99242.63;;;0.30;91.46
46642;BME280;32370;41.864;-88.124;2023-03-11T00:10:58;99242.62;;;0.37;91.89
46642;BME280;32370;41.864;-88.124;2023-03-11T00:13:27;99242.84;;;0.30;92.00
46642;BME280;32370;41.864;-88.124;2023-03-11T00:15:56;99243.62;;;0.64;91.36
46642;BME280;32370;41.864;-88.124;2023-03-11T00:18:25;99240.95;;;0.38;91.70
46642;BME280;32370;41.864;-88.124;2023-03-11T00:20:55;99247.08;;;0.76;91.09
46642;BME280;32370;41.864;-88.124;2023-03-11T00:23:24;99243.04;;;-0.10;95.01
46642;BME280;32370;41.864;-88.124;2023-03-11T00:25:53;99241.76;;;0.14;93.36
46642;BME280;32370;41.864;-88.124;2023-03-11T00:28:21;99239.46;;;0.20;92.35
46642;BME280;32370;41.864;-88.124;2023-03-11T00:30:49;99243.80;;;0.08;94.64
46642;BME280;32370;41.864;-88.124;2023-03-11T00:33:17;99257.41;;;-0.12;94.34
46642;BME280;32370;41.864;-88.124;2023-03-11T00:35:45;99265.85;;;0.07;93.58
46642;BME280;32370;41.864;-88.124;2023-03-11T00:38:14;99284.70;;;0.42;92.60
46642;BME280;32370;41.864;-88.124;2023-03-11T00:40:44;99299.68;;;-0.33;93.72
46642;BME280;32370;41.864;-88.124;2023-03-11T00:43:12;99297.40;;;0.35;94.20
46642;BME280;32370;41.864;-88.124;2023-03-11T00:45:41;99272.09;;;-0.02;94.75
46642;BME280;32370;41.864;-88.124;2023-03-11T00:48:10;99268.49;;;-0.02;94.21
46642;BME280;32370;41.864;-88.124;2023-03-11T00:50:38;99282.03;;;-0.01;93.54
46642;BME280;32370;41.864;-88.124;2023-03-11T00:53:07;99304.65;;;0.39;91.98
46642;BME280;32370;41.864;-88.124;2023-03-11T00:55:37;99294.76;;;-0.01;93.92
46642;BME280;32370;41.864;-88.124;2023-03-11T00:58:06;99284.01;;;0.07;93.48
46642;BME280;32370;41.864;-88.124;2023-03-11T01:00:35;99288.57;;;0.51;92.52
46642;BME280;32370;41.864;-88.124;2023-03-11T01:03:03;99289.41;;;0.27;92.24
46642;BME280;32370;41.864;-88.124;2023-03-11T01:05:33;99291.28;;;0.58;91.70
46642;BME280;32370;41.864;-88.124;2023-03-11T01:08:01;99282.34;;;0.24;92.67
46642;BME280;32370;41.864;-88.124;2023-03-11T01:10:31;99279.23;;;0.42;91.92
46642;BME280;32370;41.864;-88.124;2023-03-11T01:12:59;99285.63;;;0.34;92.02
46642;BME280;32370;41.864;-88.124;2023-03-11T01:15:29;99287.25;;;0.30;92.10
46642;BME280;32370;41.864;-88.124;2023-03-11T01:17:58;99294.22;;;0.30;92.43
46642;BME280;32370;41.864;-88.124;2023-03-11T01:20:26;99295.14;;;0.39;92.13
46642;BME280;32370;41.864;-88.124;2023-03-11T01:22:55;99303.28;;;-0.03;92.90
46642;BME280;32370;41.864;-88.124;2023-03-11T01:25:23;99315.80;;;0.06;92.60
46642;BME280;32370;41.864;-88.124;2023-03-11T01:27:52;99312.79;;;0.10;92.90
46642;BME280;32370;41.864;-88.124;2023-03-11T01:30:21;99316.55;;;-0.29;93.86
46642;BME280;32370;41.864;-88.124;2023-03-11T01:32:51;99304.98;;;-0.25;92.80
46642;BME280;32370;41.864;-88.124;2023-03-11T01:35:21;99287.50;;;-0.19;93.23
46642;BME280;32370;41.864;-88.124;2023-03-11T01:37:50;99283.31;;;-0.19;93.61
46642;BME280;32370;41.864;-88.124;2023-03-11T01:40:20;99283.38;;;-0.01;92.14
46642;BME280;32370;41.864;-88.124;2023-03-11T01:42:51;99277.98;;;-0.42;92.24
46642;BME280;32370;41.864;-88.124;2023-03-11T01:45:41;99281.39;;;-0.09;91.22
46642;BME280;32370;41.864;-88.124;2023-03-11T01:48:31;99295.56;;;0.42;89.92
46642;BME280;32370;41.864;-88.124;2023-03-11T01:50:59;99310.95;;;-0.10;91.94
46642;BME280;32370;41.864;-88.124;2023-03-11T01:53:27;99315.49;;;0.05;91.32
46642;BME280;32370;41.864;-88.124;2023-03-11T01:55:57;99303.70;;;-0.46;91.20
46642;BME280;32370;41.864;-88.124;2023-03-11T01:58:27;99297.43;;;-0.01;91.20
46642;BME280;32370;41.864;-88.124;2023-03-11T02:00:59;99300.63;;;-0.07;90.88
46642;BME280;32370;41.864;-88.124;2023-03-11T02:03:30;99304.03;;;-0.53;91.26
46642;BME280;32370;41.864;-88.124;2023-03-11T02:06:00;99301.67;;;-0.21;90.92
46642;BME280;32370;41.864;-88.124;2023-03-11T02:08:29;99297.80;;;-0.10;91.31
46642;BME280;32370;41.864;-88.124;2023-03-11T02:10:57;99300.54;;;-0.20;90.00
46642;BME280;32370;41.864;-88.124;2023-03-11T02:13:25;99298.05;;;0.05;89.60
46642;BME280;32370;41.864;-88.124;2023-03-11T02:15:53;99299.07;;;0.35;89.22
46642;BME280;32370;41.864;-88.124;2023-03-11T02:18:21;99302.87;;;0.12;88.71
46642;BME280;32370;41.864;-88.124;2023-03-11T02:20:53;99302.27;;;-0.33;89.51
46642;BME280;32370;41.864;-88.124;2023-03-11T02:23:33;99299.89;;;-0.03;89.34
46642;BME280;32370;41.864;-88.124;2023-03-11T02:26:08;99303.14;;;-0.10;90.04
46642;BME280;32370;41.864;-88.124;2023-03-11T02:28:40;99316.47;;;-0.25;89.44
46642;BME280;32370;41.864;-88.124;2023-03-11T02:31:09;99317.84;;;-0.29;89.78
46642;BME280;32370;41.864;-88.124;2023-03-11T02:33:37;99322.22;;;-0.00;89.16
46642;BME280;32370;41.864;-88.124;2023-03-11T02:36:06;99323.12;;;-0.23;88.66
46642;BME280;32370;41.864;-88.124;2023-03-11T02:38:35;99324.33;;;-0.36;90.15
46642;BME280;32370;41.864;-88.124;2023-03-11T02:41:04;99327.58;;;-0.31;89.26
46642;BME280;32370;41.864;-88.124;2023-03-11T02:43:37;99329.05;;;-0.34;89.33
46642;BME280;32370;41.864;-88.124;2023-03-11T02:46:08;99336.43;;;-0.41;89.45
46642;BME280;32370;41.864;-88.124;2023-03-11T02:48:38;99343.48;;;-0.29;89.44
46642;BME280;32370;41.864;-88.124;2023-03-11T02:51:06;99348.01;;;-0.54;89.41
46642;BME280;32370;41.864;-88.124;2023-03-11T02:53:38;99351.73;;;-0.79;90.14
46642;BME280;32370;41.864;-88.124;2023-03-11T02:56:10;99349.21;;;-0.15;88.86
46642;BME280;32370;41.864;-88.124;2023-03-11T02:58:38;99353.18;;;-0.61;89.63
46642;BME280;32370;41.864;-88.124;2023-03-11T03:01:06;99347.92;;;-0.68;89.11
46642;BME280;32370;41.864;-88.124;2023-03-11T03:03:34;99344.30;;;-0.28;88.26
46642;BME280;32370;41.864;-88.124;2023-03-11T03:06:02;99345.66;;;-0.87;89.51
46642;BME280;32370;41.864;-88.124;2023-03-11T03:08:30;99347.41;;;-0.51;89.51
46642;BME280;32370;41.864;-88.124;2023-03-11T03:10:58;99347.26;;;-1.17;90.80
46642;BME280;32370;41.864;-88.124;2023-03-11T03:13:26;99346.12;;;-0.48;90.07
46642;BME280;32370;41.864;-88.124;2023-03-11T03:15:54;99351.55;;;-1.43;92.71
46642;BME280;32370;41.864;-88.124;2023-03-11T03:18:22;99350.22;;;-1.41;92.97
46642;BME280;32370;41.864;-88.124;2023-03-11T03:20:50;99354.66;;;-0.65;90.39
46642;BME280;32370;41.864;-88.124;2023-03-11T03:23:18;99344.13;;;-0.59;89.89
46642;BME280;32370;41.864;-88.124;2023-03-11T03:25:46;99335.12;;;-1.07;90.72
46642;BME280;32370;41.864;-88.124;2023-03-11T03:28:14;99328.71;;;-0.34;88.96
46642;BME280;32370;41.864;-88.124;2023-03-11T03:30:42;99330.34;;;-0.97;89.31
46642;BME280;32370;41.864;-88.124;2023-03-11T03:33:10;99326.25;;;-1.05;90.00
46642;BME280;32370;41.864;-88.124;2023-03-11T03:35:41;99323.89;;;-1.33;91.75
46642;BME280;32370;41.864;-88.124;2023-03-11T03:38:10;99314.04;;;-1.13;93.01
46642;BME280;32370;41.864;-88.124;2023-03-11T03:40:38;99298.51;;;-0.75;90.41
46642;BME280;32370;41.864;-88.124;2023-03-11T03:43:05;99295.96;;;-0.49;89.04
46642;BME280;32370;41.864;-88.124;2023-03-11T03:45:35;99285.24;;;-0.49;89.82
46642;BME280;32370;41.864;-88.124;2023-03-11T03:48:03;99273.41;;;-0.58;89.21
46642;BME280;32370;41.864;-88.124;2023-03-11T03:50:33;99272.73;;;-0.26;88.99
46642;BME280;32370;41.864;-88.124;2023-03-11T03:53:01;99268.94;;;-0.87;89.92
46642;BME280;32370;41.864;-88.124;2023-03-11T03:55:29;99263.04;;;-0.68;90.33
46642;BME280;32370;41.864;-88.124;2023-03-11T03:57:58;99260.95;;;-0.67;89.76
46642;BME280;32370;41.864;-88.124;2023-03-11T04:00:25;99264.09;;;-0.91;90.27
46642;BME280;32370;41.864;-88.124;2023-03-11T04:02:53;99268.03;;;-1.02;90.86
46642;BME280;32370;41.864;-88.124;2023-03-11T04:05:21;99272.05;;;-1.21;92.05
46642;BME280;32370;41.864;-88.124;2023-03-11T04:07:49;99274.12;;;-0.84;91.45
46642;BME280;32370;41.864;-88.124;2023-03-11T04:10:18;99267.68;;;-0.36;90.00
46642;BME280;32370;41.864;-88.124;2023-03-11T04:12:46;99262.00;;;-0.41;89.02
46642;BME280;32370;41.864;-88.124;2023-03-11T04:15:14;99264.03;;;-0.96;90.07
46642;BME280;32370;41.864;-88.124;2023-03-11T04:17:42;99262.14;;;-0.93;90.30
46642;BME280;32370;41.864;-88.124;2023-03-11T04:20:12;99264.82;;;-0.60;88.84
46642;BME280;32370;41.864;-88.124;2023-03-11T04:22:39;99262.17;;;-0.22;88.83
46642;BME280;32370;41.864;-88.124;2023-03-11T04:25:08;99261.66;;;-0.23;89.75
46642;BME280;32370;41.864;-88.124;2023-03-11T04:27:36;99258.72;;;-0.77;90.06
46642;BME280;32370;41.864;-88.124;2023-03-11T04:30:05;99262.90;;;-0.70;89.88
46642;BME280;32370;41.864;-88.124;2023-03-11T04:32:34;99263.96;;;-1.06;91.24
46642;BME280;32370;41.864;-88.124;2023-03-11T04:35:02;99263.66;;;-1.78;94.03
46642;BME280;32370;41.864;-88.124;2023-03-11T04:37:30;99262.68;;;-1.32;94.12
46642;BME280;32370;41.864;-88.124;2023-03-11T04:39:58;99253.17;;;-1.18;94.27
46642;BME280;32370;41.864;-88.124;2023-03-11T04:42:26;99256.87;;;-0.57;92.70
46642;BME280;32370;41.864;-88.124;2023-03-11T04:44:54;99257.51;;;-0.69;90.50
46642;BME280;32370;41.864;-88.124;2023-03-11T04:47:22;99254.76;;;-0.18;89.60
46642;BME280;32370;41.864;-88.124;2023-03-11T04:49:50;99257.01;;;-0.19;88.66
46642;BME280;32370;41.864;-88.124;2023-03-11T04:52:18;99257.47;;;-0.34;89.38
46642;BME280;32370;41.864;-88.124;2023-03-11T04:54:46;99261.96;;;-0.36;88.71
46642;BME280;32370;41.864;-88.124;2023-03-11T04:57:15;99262.69;;;0.02;88.06
46642;BME280;32370;41.864;-88.124;2023-03-11T04:59:44;99255.71;;;-0.32;89.38
46642;BME280;32370;41.864;-88.124;2023-03-11T05:02:11;99256.77;;;-0.34;89.16
46642;BME280;32370;41.864;-88.124;2023-03-11T05:04:39;99250.03;;;-0.45;89.01
46642;BME280;32370;41.864;-88.124;2023-03-11T05:07:07;99252.33;;;-0.15;88.57
46642;BME280;32370;41.864;-88.124;2023-03-11T05:09:35;99247.81;;;-0.41;90.14
46642;BME280;32370;41.864;-88.124;2023-03-11T05:12:04;99249.51;;;-0.65;89.91
46642;BME280;32370;41.864;-88.124;2023-03-11T05:14:34;99244.92;;;-0.23;89.71
46642;BME280;32370;41.864;-88.124;2023-03-11T05:17:02;99242.02;;;-0.02;89.18
46642;BME280;32370;41.864;-88.124;2023-03-11T05:19:30;99244.75;;;-0.37;88.24
46642;BME280;32370;41.864;-88.124;2023-03-11T05:21:58;99242.91;;;-0.68;90.63
46642;BME280;32370;41.864;-88.124;2023-03-11T05:24:27;99237.77;;;-0.33;89.58
46642;BME280;32370;41.864;-88.124;2023-03-11T05:26:56;99234.01;;;-0.68;89.97
46642;BME280;32370;41.864;-88.124;2023-03-11T05:29:25;99235.10;;;-0.27;89.76
46642;BME280;32370;41.864;-88.124;2023-03-11T05:31:53;99239.02;;;-0.50;88.92
46642;BME280;32370;41.864;-88.124;2023-03-11T05:34:21;99240.67;;;-0.24;89.13
46642;BME280;32370;41.864;-88.124;2023-03-11T05:36:49;99237.37;;;-0.66;90.19
46642;BME280;32370;41.864;-88.124;2023-03-11T05:39:17;99237.74;;;-0.05;89.50
46642;BME280;32370;41.864;-88.124;2023-03-11T05:41:45;99235.53;;;-1.08;91.94
46642;BME280;32370;41.864;-88.124;2023-03-11T05:44:13;99227.77;;;-0.74;91.40
46642;BME280;32370;41.864;-88.124;2023-03-11T05:46:41;99226.21;;;-0.73;92.04
46642;BME280;32370;41.864;-88.124;2023-03-11T05:49:09;99226.55;;;-0.72;91.82
46642;BME280;32370;41.864;-88.124;2023-03-11T05:51:37;99231.18;;;-0.71;91.64
46642;BME280;32370;41.864;-88.124;2023-03-11T05:54:06;99234.23;;;-0.59;91.42
46642;BME280;32370;41.864;-88.124;2023-03-11T05:56:34;99238.08;;;-0.16;89.82
46642;BME280;32370;41.864;-88.124;2023-03-11T05:59:02;99235.15;;;0.10;88.67
46642;BME280;32370;41.864;-88.124;2023-03-11T06:01:32;99242.22;;;-0.87;89.68
46642;BME280;32370;41.864;-88.124;2023-03-11T06:04:00;99241.41;;;-0.30;89.94
46642;BME280;32370;41.864;-88.124;2023-03-11T06:06:28;99242.19;;;-1.38;92.48
46642;BME280;32370;41.864;-88.124;2023-03-11T06:08:56;99245.21;;;-1.13;92.52
46642;BME280;32370;41.864;-88.124;2023-03-11T06:11:24;99239.58;;;-0.48;91.33
46642;BME280;32370;41.864;-88.124;2023-03-11T06:13:53;99237.46;;;-0.80;91.81
46642;BME280;32370;41.864;-88.124;2023-03-11T06:16:21;99234.46;;;-0.36;90.69
46642;BME280;32370;41.864;-88.124;2023-03-11T06:18:50;99242.66;;;-1.23;92.79
46642;BME280;32370;41.864;-88.124;2023-03-11T06:21:20;99250.57;;;-0.78;92.89
46642;BME280;32370;41.864;-88.124;2023-03-11T06:23:48;99250.74;;;-0.35;91.20
46642;BME280;32370;41.864;-88.124;2023-03-11T06:26:18;99254.29;;;-0.31;90.73
46642;BME280;32370;41.864;-88.124;2023-03-11T06:28:47;99259.94;;;-0.03;89.42
46642;BME280;32370;41.864;-88.124;2023-03-11T06:31:17;99262.00;;;-0.48;91.36
46642;BME280;32370;41.864;-88.124;2023-03-11T06:33:46;99257.14;;;-0.35;90.38
46642;BME280;32370;41.864;-88.124;2023-03-11T06:36:17;99258.70;;;-0.52;91.33
46642;BME280;32370;41.864;-88.124;2023-03-11T06:38:45;99271.23;;;-0.32;91.36
46642;BME280;32370;41.864;-88.124;2023-03-11T06:41:12;99273.80;;;-0.76;92.56
46642;BME280;32370;41.864;-88.124;2023-03-11T06:43:41;99272.98;;;-1.20;93.69
46642;BME280;32370;41.864;-88.124;2023-03-11T06:46:10;99273.78;;;-0.30;91.95
46642;BME280;32370;41.864;-88.124;2023-03-11T06:48:38;99270.62;;;-0.03;90.97
46642;BME280;32370;41.864;-88.124;2023-03-11T06:51:06;99267.84;;;-0.34;90.70
46642;BME280;32370;41.864;-88.124;2023-03-11T06:53:35;99274.25;;;-0.53;91.31
46642;BME280;32370;41.864;-88.124;2023-03-11T06:56:05;99272.90;;;-0.75;91.53
46642;BME280;32370;41.864;-88.124;2023-03-11T06:58:36;99278.59;;;-0.75;92.93
46642;BME280;32370;41.864;-88.124;2023-03-11T07:01:06;99286.50;;;-0.93;94.01
46642;BME280;32370;41.864;-88.124;2023-03-11T07:03:36;99288.84;;;-0.83;93.78
46642;BME280;32370;41.864;-88.124;2023-03-11T07:06:05;99288.24;;;-0.83;94.14
46642;BME280;32370;41.864;-88.124;2023-03-11T07:08:34;99287.01;;;-0.71;92.95
46642;BME280;32370;41.864;-88.124;2023-03-11T07:11:04;99294.61;;;-0.73;93.58
46642;BME280;32370;41.864;-88.124;2023-03-11T07:13:33;99308.27;;;-0.79;94.91
46642;BME280;32370;41.864;-88.124;2023-03-11T07:16:02;99308.14;;;-0.48;93.72
46642;BME280;32370;41.864;-88.124;2023-03-11T07:18:31;99315.37;;;-0.85;94.71
46642;BME280;32370;41.864;-88.124;2023-03-11T07:21:01;99321.11;;;-0.85;95.23
46642;BME280;32370;41.864;-88.124;2023-03-11T07:23:28;99313.72;;;-0.72;95.60
46642;BME280;32370;41.864;-88.124;2023-03-11T07:25:56;99304.38;;;-0.61;95.10
46642;BME280;32370;41.864;-88.124;2023-03-11T07:28:26;99295.20;;;-0.73;94.81
46642;BME280;32370;41.864;-88.124;2023-03-11T07:30:55;99277.77;;;-0.42;94.54
46642;BME280;32370;41.864;-88.124;2023-03-11T07:33:23;99257.87;;;-0.41;94.42
46642;BME280;32370;41.864;-88.124;2023-03-11T07:35:52;99245.94;;;-0.59;94.74
46642;BME280;32370;41.864;-88.124;2023-03-11T07:38:20;99238.44;;;-0.62;94.69
46642;BME280;32370;41.864;-88.124;2023-03-11T07:40:57;99230.92;;;-0.44;95.21
46642;BME280;32370;41.864;-88.124;2023-03-11T07:43:25;99231.56;;;-0.93;95.38
46642;BME280;32370;41.864;-88.124;2023-03-11T07:46:02;99230.57;;;-0.33;95.08
46642;BME280;32370;41.864;-88.124;2023-03-11T07:48:30;99238.19;;;-0.34;94.90
46642;BME280;32370;41.864;-88.124;2023-03-11T07:51:03;99246.75;;;-0.75;96.46
46642;BME280;32370;41.864;-88.124;2023-03-11T07:53:32;99244.41;;;-0.74;96.60
46642;BME280;32370;41.864;-88.124;2023-03-11T07:56:02;99237.58;;;-1.24;98.25
46642;BME280;32370;41.864;-88.124;2023-03-11T07:58:30;99235.26;;;-1.47;98.86
46642;BME280;32370;41.864;-88.124;2023-03-11T08:01:03;99226.43;;;-1.07;98.24
46642;BME280;32370;41.864;-88.124;2023-03-11T08:03:32;99217.54;;;-0.76;97.21
46642;BME280;32370;41.864;-88.124;2023-03-11T08:06:01;99221.18;;;-1.30;98.17
46642;BME280;32370;41.864;-88.124;2023-03-11T08:08:29;99231.83;;;-0.96;97.88
46642;BME280;32370;41.864;-88.124;2023-03-11T08:10:57;99228.42;;;-0.73;97.10
46642;BME280;32370;41.864;-88.124;2023-03-11T08:13:29;99226.33;;;-0.69;96.19
46642;BME280;32370;41.864;-88.124;2023-03-11T08:15:57;99216.52;;;-0.50;95.51
46642;BME280;32370;41.864;-88.124;2023-03-11T08:18:25;99213.44;;;-0.52;95.28
46642;BME280;32370;41.864;-88.124;2023-03-11T08:20:53;99212.24;;;-0.07;94.58
46642;BME280;32370;41.864;-88.124;2023-03-11T08:23:21;99218.67;;;-0.27;94.34
46642;BME280;32370;41.864;-88.124;2023-03-11T08:25:49;99223.84;;;-0.62;94.98
46642;BME280;32370;41.864;-88.124;2023-03-11T08:28:17;99225.61;;;-0.62;95.25
46642;BME280;32370;41.864;-88.124;2023-03-11T08:30:45;99219.82;;;-0.39;95.24
46642;BME280;32370;41.864;-88.124;2023-03-11T08:33:13;99211.02;;;-0.88;95.52
46642;BME280;32370;41.864;-88.124;2023-03-11T08:35:41;99209.54;;;-0.32;94.37
46642;BME280;32370;41.864;-88.124;2023-03-11T08:38:09;99198.13;;;-0.06;93.04
46642;BME280;32370;41.864;-88.124;2023-03-11T08:40:37;99203.72;;;-0.43;93.41
46642;BME280;32370;41.864;-88.124;2023-03-11T08:43:05;99199.12;;;-0.72;93.51
46642;BME280;32370;41.864;-88.124;2023-03-11T08:45:34;99198.33;;;-0.45;93.80
46642;BME280;32370;41.864;-88.124;2023-03-11T08:48:09;99198.01;;;-0.58;94.77
46642;BME280;32370;41.864;-88.124;2023-03-11T08:50:40;99185.02;;;-0.76;94.72
46642;BME280;32370;41.864;-88.124;2023-03-11T08:53:08;99180.59;;;-0.74;95.29
46642;BME280;32370;41.864;-88.124;2023-03-11T08:55:36;99186.61;;;-0.60;95.21
46642;BME280;32370;41.864;-88.124;2023-03-11T08:58:04;99181.55;;;-1.14;95.27
46642;BME280;32370;41.864;-88.124;2023-03-11T09:00:32;99178.52;;;-0.53;94.23
46642;BME280;32370;41.864;-88.124;2023-03-11T09:03:00;99180.06;;;-0.68;93.78
46642;BME280;32370;41.864;-88.124;2023-03-11T09:05:28;99181.17;;;-0.52;94.49
46642;BME280;32370;41.864;-88.124;2023-03-11T09:07:58;99185.05;;;-1.12;95.80
46642;BME280;32370;41.864;-88.124;2023-03-11T09:10:26;99195.86;;;-0.72;95.22
46642;BME280;32370;41.864;-88.124;2023-03-11T09:12:54;99201.55;;;-0.76;95.23
46642;BME280;32370;41.864;-88.124;2023-03-11T09:15:22;99205.50;;;-0.52;94.58
46642;BME280;32370;41.864;-88.124;2023-03-11T09:17:50;99209.16;;;-0.73;93.72
46642;BME280;32370;41.864;-88.124;2023-03-11T09:20:18;99206.28;;;-0.62;93.81
46642;BME280;32370;41.864;-88.124;2023-03-11T09:22:46;99197.99;;;-0.64;94.39
46642;BME280;32370;41.864;-88.124;2023-03-11T09:25:15;99196.69;;;-0.78;95.66
46642;BME280;32370;41.864;-88.124;2023-03-11T09:27:42;99200.10;;;-0.67;95.45
46642;BME280;32370;41.864;-88.124;2023-03-11T09:30:11;99199.55;;;-1.26;95.28
46642;BME280;32370;41.864;-88.124;2023-03-11T09:32:39;99192.06;;;-0.29;93.52
46642;BME280;32370;41.864;-88.124;2023-03-11T09:35:09;99199.61;;;-0.46;92.74
46642;BME280;32370;41.864;-88.124;2023-03-11T09:37:36;99197.72;;;-0.46;91.96
46642;BME280;32370;41.864;-88.124;2023-03-11T09:40:05;99195.78;;;-0.03;91.63
46642;BME280;32370;41.864;-88.124;2023-03-11T09:42:38;99192.23;;;-0.30;92.31
46642;BME280;32370;41.864;-88.124;2023-03-11T09:45:14;99188.74;;;-0.74;92.96
46642;BME280;32370;41.864;-88.124;2023-03-11T09:47:52;99185.25;;;-0.43;92.50
46642;BME280;32370;41.864;-88.124;2023-03-11T09:50:30;99180.45;;;-0.85;93.60
46642;BME280;32370;41.864;-88.124;2023-03-11T09:53:10;99181.82;;;-0.52;93.54
46642;BME280;32370;41.864;-88.124;2023-03-11T09:55:42;99179.56;;;-0.20;92.46
46642;BME280;32370;41.864;-88.124;2023-03-11T09:58:14;99173.39;;;-0.56;93.05
46642;BME280;32370;41.864;-88.124;2023-03-11T10:00:45;99173.75;;;-0.31;93.17
46642;BME280;32370;41.864;-88.124;2023-03-11T10:03:24;99177.78;;;-0.66;93.77
46642;BME280;32370;41.864;-88.124;2023-03-11T10:05:58;99193.16;;;-0.46;92.86
46642;BME280;32370;41.864;-88.124;2023-03-11T10:08:38;99202.15;;;-0.31;92.19
46642;BME280;32370;41.864;-88.124;2023-03-11T10:11:18;99198.12;;;-0.58;91.90
46642;BME280;32370;41.864;-88.124;2023-03-11T10:13:59;99201.01;;;-0.79;89.98
46642;BME280;32370;41.864;-88.124;2023-03-11T10:16:34;99192.00;;;-0.39;88.16
46642;BME280;32370;41.864;-88.124;2023-03-11T10:19:10;99193.59;;;-0.62;89.81
46642;BME280;32370;41.864;-88.124;2023-03-11T10:21:49;99181.33;;;-0.56;88.47
46642;BME280;32370;41.864;-88.124;2023-03-11T10:24:34;99178.73;;;-0.84;87.29
46642;BME280;32370;41.864;-88.124;2023-03-11T10:27:10;99176.26;;;-0.41;86.55
46642;BME280;32370;41.864;-88.124;2023-03-11T10:29:49;99169.05;;;-0.55;87.11
46642;BME280;32370;41.864;-88.124;2023-03-11T10:32:23;99164.34;;;-0.50;87.28
46642;BME280;32370;41.864;-88.124;2023-03-11T10:34:55;99166.32;;;-0.63;87.91
46642;BME280;32370;41.864;-88.124;2023-03-11T10:37:28;99177.50;;;-0.61;88.40
46642;BME280;32370;41.864;-88.124;2023-03-11T10:40:06;99184.97;;;-0.87;88.78
46642;BME280;32370;41.864;-88.124;2023-03-11T10:42:35;99185.93;;;-0.67;88.45
46642;BME280;32370;41.864;-88.124;2023-03-11T10:45:09;99192.71;;;-0.61;88.41
46642;BME280;32370;41.864;-88.124;2023-03-11T10:47:39;99201.13;;;-0.79;88.48
46642;BME280;32370;41.864;-88.124;2023-03-11T10:50:12;99212.80;;;-0.85;88.28
46642;BME280;32370;41.864;-88.124;2023-03-11T10:53:02;99220.70;;;-1.18;89.32
46642;BME280;32370;41.864;-88.124;2023-03-11T10:55:31;99230.06;;;-0.52;88.36
46642;BME280;32370;41.864;-88.124;2023-03-11T10:58:05;99235.84;;;-0.59;88.19
46642;BME280;32370;41.864;-88.124;2023-03-11T11:00:35;99240.87;;;-0.65;88.17
46642;BME280;32370;41.864;-88.124;2023-03-11T11:03:03;99245.20;;;-0.45;88.22
46642;BME280;32370;41.864;-88.124;2023-03-11T11:05:32;99247.79;;;-0.48;87.23
46642;BME280;32370;41.864;-88.124;2023-03-11T11:08:05;99252.11;;;0.12;85.65
46642;BME280;32370;41.864;-88.124;2023-03-11T11:10:36;99258.64;;;-0.17;86.11
46642;BME280;32370;41.864;-88.124;2023-03-11T11:13:17;99261.04;;;-0.14;85.81
46642;BME280;32370;41.864;-88.124;2023-03-11T11:15:53;99261.42;;;-0.04;84.76
46642;BME280;32370;41.864;-88.124;2023-03-11T11:18:25;99257.22;;;0.04;84.45
46642;BME280;32370;41.864;-88.124;2023-03-11T11:20:58;99256.55;;;-0.39;85.82
46642;BME280;32370;41.864;-88.124;2023-03-11T11:23:30;99261.97;;;-0.52;87.46
46642;BME280;32370;41.864;-88.124;2023-03-11T11:26:00;99261.97;;;-0.64;87.38
46642;BME280;32370;41.864;-88.124;2023-03-11T11:28:29;99262.36;;;-0.72;87.01
46642;BME280;32370;41.864;-88.124;2023-03-11T11:30:58;99262.66;;;-0.57;86.40
46642;BME280;32370;41.864;-88.124;2023-03-11T11:33:29;99265.45;;;-0.65;86.35
46642;BME280;32370;41.864;-88.124;2023-03-11T11:36:01;99264.68;;;-0.50;86.86
46642;BME280;32370;41.864;-88.124;2023-03-11T11:38:31;99264.65;;;-0.56;87.34
46642;BME280;32370;41.864;-88.124;2023-03-11T11:41:02;99265.43;;;-0.75;87.40
46642;BME280;32370;41.864;-88.124;2023-03-11T11:43:40;99265.19;;;-0.77;87.45
46642;BME280;32370;41.864;-88.124;2023-03-11T11:46:18;99262.00;;;-0.37;84.87
46642;BME280;32370;41.864;-88.124;2023-03-11T11:48:54;99263.96;;;-0.42;85.89
46642;BME280;32370;41.864;-88.124;2023-03-11T11:51:29;99253.73;;;-1.04;87.49
46642;BME280;32370;41.864;-88.124;2023-03-11T11:54:00;99253.37;;;-0.84;87.17
46642;BME280;32370;41.864;-88.124;2023-03-11T11:56:29;99255.64;;;-0.68;87.24
46642;BME280;32370;41.864;-88.124;2023-03-11T11:58:57;99265.20;;;-1.32;88.20
46642;BME280;32370;41.864;-88.124;2023-03-11T12:01:35;99261.67;;;-0.89;87.17
46642;BME280;32370;41.864;-88.124;2023-03-11T12:04:24;99257.95;;;-0.62;86.43
46642;BME280;32370;41.864;-88.124;2023-03-11T12:07:06;99256.48;;;-0.17;85.25
46642;BME280;32370;41.864;-88.124;2023-03-11T12:09:45;99261.98;;;-0.68;85.04
46642;BME280;32370;41.864;-88.124;2023-03-11T12:12:22;99269.47;;;-0.35;85.08
46642;BME280;32370;41.864;-88.124;2023-03-11T12:14:57;99278.30;;;-0.56;84.50
46642;BME280;32370;41.864;-88.124;2023-03-11T12:17:29;99287.21;;;-0.43;85.05
46642;BME280;32370;41.864;-88.124;2023-03-11T12:20:02;99286.14;;;-0.25;84.14
46642;BME280;32370;41.864;-88.124;2023-03-11T12:22:46;99287.75;;;-1.03;86.75
46642;BME280;32370;41.864;-88.124;2023-03-11T12:25:36;99290.04;;;-1.05;87.30
46642;BME280;32370;41.864;-88.124;2023-03-11T12:28:17;99298.08;;;-1.28;88.95
46642;BME280;32370;41.864;-88.124;2023-03-11T12:30:48;99300.16;;;-0.71;86.24
46642;BME280;32370;41.864;-88.124;2023-03-11T12:33:23;99297.32;;;-0.98;86.73
46642;BME280;32370;41.864;-88.124;2023-03-11T12:35:55;99297.60;;;-0.37;85.79
46642;BME280;32370;41.864;-88.124;2023-03-11T12:38:29;99297.28;;;-0.20;83.87
46642;BME280;32370;41.864;-88.124;2023-03-11T12:41:02;99288.43;;;-0.05;84.56
46642;BME280;32370;41.864;-88.124;2023-03-11T12:44:20;99294.73;;;0.63;83.15
46642;BME280;32370;41.864;-88.124;2023-03-11T12:47:17;99309.49;;;0.04;83.60
46642;BME280;32370;41.864;-88.124;2023-03-11T12:49:47;99313.79;;;-0.35;84.56
46642;BME280;32370;41.864;-88.124;2023-03-11T12:52:22;99292.87;;;-0.47;84.01
46642;BME280;32370;41.864;-88.124;2023-03-11T12:55:29;99287.34;;;-0.15;83.78
46642;BME280;32370;41.864;-88.124;2023-03-11T12:58:03;99282.61;;;-0.12;83.23